map of PNK home
PNK - Airport
Location
City:  Pontianak, Kalimantan Barat (West Borneo), Indonesia
Name:Supadio
ICAO:WIOO
IATA:PNK

Details
Type:Airport (Aerodrome, Airfield)
Use:Public/Civil, International (customs port of entry)
Latitude:009'03"S (-0.150710)
Longitude:10924'14"E (109.403892)
Datum:WGS 1984
Elevation:10 ft (3 m)
Variation:0.45E (WMM2015 magnetic declination)
-0.04 annual change
Runways:1
Longest:7380 × 98 ft (2249 × 30 m), paved

Time
Time Zone:UTC+7
Local Time:

Weather
METAR:WIOO 180530Z 06003KT 9999 FEW011CB BKN012 32/24 Q1007

Related Locations
Nearby:
Farthest:CUO: 12376 mi / 19917 km
Caruru [Caruru Airport], VAU, CO

Find:

   beyond  
but within

Other Information
Maps:
NOTAMs:
Links:
Sources:

  
  • flag of Indonesia
  • flag of Kalimantan Barat (West Borneo)
  

Sectional Chart

Flight Planning
at skyvector.com

Satellite Image

Google Maps Satellite view

 

Copyright © 2004-2019 Karl L. Swartz. All rights reserved.
The Great Circle Mapper name and logo are trademarks of the Great Circle Mapper.
All other trademarks mentioned herein belong to their respective owners.
Please see credits for attibutions and further copyright information.

  Follow gcmap on Facebook Follow gcmap on Twitter Follow gcmap on Google+ GCmap on LinkedIn

hCard Microformat

Geo Microformat